HCMH

Egal International Airport

Hargeisa, Somalia
METAR HCMH 211000Z 11010KT 9999 BKN025 28/18 Q1018
Observed Flight Rules
Apr-21 @ 10:00 UTC (6 hours ago) Marginal Visual Flight Rules
Wind Visibility Clouds
110° at 10 knots 10,000+ meters
  • Broken at 2,500' AGL
Temperatures Readings
Current 28°C / 82°F
Dewpoint 18°C / 64°F
Humidity 55%
Altimeter 30.06" Hg
Pressure 1018 hPa
Elevation 1326
METAR HCMH 211000Z 11010KT 9999 BKN025 28/18 Q1018
Observed Flight Rules
Apr-21 @ 10:00 UTC
(6 hours ago)
MVFR
Wind Visibility
110° at 10 knots 10,000+ meters
Clouds
  • Broken at 2,500' AGL
Temperature Dewpoint
28°C / 82°F 18°C / 64°F
Humidity Altimeter Pressure
55% 30.06" Hg 1018 hPa